Latest Weather Observations for Moree

IDN60801

Issued at 9:52 am EDT Wednesday 20 February 2019 (issued every 10 minutes, with the page automatically refreshed every 10 minutes)

About weather observations | Map of weather stations | Latest weather observations for NSW | Other Formats
Station Details ID: 053115 Name: MOREE AERO Lat: -29.49 Lon: 149.85 Height: 213.0 m
Data from the previous 72 hours. | See also: Recent months at Moree
Date/Time
EDT
Temp
°C
App
Temp
°C
Dew
Point
°C
Rel
Hum
%
Delta-T
°C
Wind Press
QNH
hPa
Press
MSL
hPa
Rain since
9am
mm
Dir  Spd
km/h
Gust
km/h
Spd
kts
Gust
kts
20/09:30am 32.5 27.7 14.1 32 11.3 NNE 32 41 17 22 1007.5 1006.1 0.0
20/09:00am 31.9 27.6 14.5 34 10.7 NNE 30 39 16 21 1007.5 1006.1 0.0
20/08:30am 30.7 26.2 14.8 38 9.8 NNE 32 43 17 23 1007.3 1005.9 0.0
20/08:00am 29.5 26.4 14.5 40 9.2 NE 24 32 13 17 1007.2 1005.8 0.0
20/07:30am 27.7 24.9 12.5 39 8.9 NE 19 22 10 12 1006.8 1005.5 0.0
20/07:00am 27.5 24.1 11.1 36 9.4 NE 20 26 11 14 1006.4 1005.1 0.0
20/06:30am 27.8 24.6 11.8 37 9.3 NE 20 26 11 14 1006.1 1004.8 0.0
20/06:00am 25.9 23.8 9.7 36 9.0 NNE 11 13 6 7 1005.9 1004.6 0.0
20/05:30am 26.0 23.7 7.6 31 9.9 NE 9 11 5 6 1005.7 1004.4 0.0
20/05:00am 26.2 24.7 6.8 29 10.3 E 4 11 2 6 1005.5 1004.2 0.0
20/04:30am 26.2 25.7 7.7 31 10.0 CALM 0 0 0 0 1005.2 1003.9 0.0
20/04:00am 27.1 25.5 6.5 27 11.0 S 4 7 2 4 1005.3 1004.0 0.0
20/03:30am 28.4 25.6 7.1 26 11.5 ENE 11 28 6 15 1005.6 1004.3 0.0
20/03:20am 27.7 24.2 7.0 27 11.1 S 15 37 8 20 1005.8 1004.5 0.0
20/03:00am 27.6 25.2 6.9 27 11.1 WSW 9 11 5 6 1005.1 1003.8 0.0
20/02:30am 27.8 24.9 6.6 26 11.3 WSW 11 13 6 7 1005.3 1004.0 0.0
20/02:00am 27.5 24.7 6.8 27 11.1 W 11 15 6 8 1005.5 1004.2 0.0
20/01:30am 28.7 25.8 6.7 25 11.8 WSW 11 13 6 7 1005.7 1004.4 0.0
20/01:00am 29.9 26.6 6.5 23 12.6 SW 13 17 7 9 1006.0 1004.7 0.0
20/12:30am 31.0 27.8 6.8 22 13.2 SW 13 19 7 10 1006.1 1004.8 0.0
20/12:00am 31.5 27.5 6.5 21 13.6 SW 17 22 9 12 1006.1 1004.8 0.0
 
Date/Time
EDT
Temp
°C
App
Temp
°C
Dew
Point
°C
Rel
Hum
%
Delta-T
°C
Wind Press
QNH
hPa
Press
MSL
hPa
Rain since
9am
mm
Dir  Spd
km/h
Gust
km/h
Spd
kts
Gust
kts
19/11:30pm 31.3 28.9 7.1 22 13.3 NE 9 11 5 6 1005.5 1004.2 0.0
19/11:00pm 32.0 28.8 7.0 21 13.8 NNE 13 13 7 7 1005.4 1004.1 0.0
19/10:30pm 31.7 28.8 6.7 21 13.6 NE 11 13 6 7 1005.3 1004.0 0.0
19/10:00pm 32.9 29.4 7.0 20 14.3 E 15 17 8 9 1005.1 1003.8 0.0
19/09:30pm 33.3 30.2 7.3 20 14.4 ENE 13 17 7 9 1004.7 1003.4 0.0
19/09:00pm 32.9 29.7 7.0 20 14.3 ENE 13 15 7 8 1004.5 1003.2 0.0
19/08:30pm 34.4 31.2 6.7 18 15.3 ENE 13 15 7 8 1004.4 1003.1 0.0
19/08:00pm 36.3 33.4 6.5 16 16.6 NE 11 13 6 7 1004.1 1002.8 0.0
19/07:30pm 37.5 35.0 6.5 15 17.3 ENE 9 13 5 7 1004.0 1002.6 0.0
19/07:00pm 38.6 36.4 6.3 14 18.2 E 7 11 4 6 1003.7 1002.3 0.0
19/06:30pm 38.9 37.0 6.6 14 18.2 NNE 6 13 3 7 1003.6 1002.2 0.0
19/06:00pm 39.7 37.7 6.1 13 18.9 S 6 9 3 5 1003.6 1002.2 0.0
19/05:30pm 39.3 36.9 6.9 14 18.4 NW 9 19 5 10 1003.7 1002.3 0.0
19/05:00pm 39.4 36.6 7.0 14 18.5 NNE 11 22 6 12 1003.7 1002.3 0.0
19/04:30pm 39.5 36.4 7.1 14 18.5 NE 13 19 7 10 1003.9 1002.5 0.0
19/04:00pm 39.1 36.6 6.7 14 18.4 NW 9 22 5 12 1004.2 1002.9 0.0
19/03:30pm 38.3 34.9 6.1 14 18.0 NNE 13 22 7 12 1004.8 1003.5 0.0
19/03:00pm 38.9 35.3 6.6 14 18.3 N 15 33 8 18 1005.3 1004.0 0.0
19/02:30pm 37.9 35.5 8.6 17 16.9 NW 11 19 6 10 1005.8 1004.5 0.0
19/02:00pm 37.1 34.0 8.8 18 16.4 N 15 26 8 14 1006.4 1005.1 0.0
19/01:30pm 36.4 32.8 8.3 18 16.1 N 17 28 9 15 1007.1 1005.7 0.0
19/01:00pm 34.9 32.1 11.3 24 14.1 NNW 17 30 9 16 1007.5 1006.1 0.0
19/12:30pm 34.2 31.0 12.0 26 13.3 NNW 20 30 11 16 1008.1 1006.7 0.0
19/12:00pm 33.7 31.5 13.2 29 12.5 NNW 17 26 9 14 1008.6 1007.3 0.0
19/11:30am 31.7 28.8 13.0 32 11.3 N 20 32 11 17 1009.3 1008.0 0.0
19/11:00am 31.3 29.0 14.0 35 10.6 N 19 28 10 15 1009.4 1008.1 0.0
19/10:30am 29.9 27.0 14.0 37 9.7 NNE 22 32 12 17 1009.7 1008.4 0.0
19/10:00am 28.8 25.7 14.6 42 8.7 NNE 24 32 13 17 1009.7 1008.4 0.0
19/09:30am 27.0 23.2 14.7 47 7.5 NE 28 35 15 19 1009.6 1008.3 0.0
19/09:00am 26.0 21.9 14.8 50 6.8 NE 30 37 16 20 1009.7 1008.4 0.0
19/08:30am 25.1 22.0 14.6 52 6.3 NE 24 32 13 17 1009.9 1008.6 0.0
19/08:00am 24.5 21.2 14.9 55 5.8 NE 26 35 14 19 1009.3 1008.0 0.0
19/07:30am 24.1 21.9 14.8 56 5.6 ENE 20 26 11 14 1009.1 1007.8 0.0
19/07:00am 23.7 21.4 14.7 57 5.4 NE 20 28 11 15 1008.1 1006.7 0.0
19/06:30am 23.9 20.3 14.3 55 5.7 NNE 26 32 14 17 1007.6 1006.2 0.0
19/06:00am 24.5 20.7 14.6 54 6.0 NE 28 33 15 18 1007.2 1005.8 0.0
19/05:30am 24.9 20.6 14.4 52 6.3 NE 30 37 16 20 1007.1 1005.7 0.0
19/05:00am 25.5 21.2 14.3 50 6.7 NE 30 37 16 20 1006.6 1005.3 0.0
19/04:30am 25.9 21.5 14.1 48 7.1 NNE 30 35 16 19 1006.8 1005.5 0.0
19/04:00am 26.3 22.2 13.8 46 7.5 NNE 28 35 15 19 1006.8 1005.5 0.0
19/03:30am 26.6 21.6 12.3 41 8.3 NNE 30 37 16 20 1007.1 1005.7 0.0
19/03:00am 26.6 22.4 9.9 35 9.4 NE 22 28 12 15 1007.3 1005.9 0.0
19/02:30am 26.1 22.0 7.7 31 9.9 NE 19 24 10 13 1007.3 1005.9 0.0
19/02:00am 25.2 20.9 6.9 31 9.7 ENE 19 35 10 19 1007.5 1006.1 0.0
19/01:30am 26.7 23.8 6.7 28 10.6 NNE 11 13 6 7 1007.3 1005.9 0.0
19/01:00am 26.8 23.7 7.3 29 10.5 N 13 15 7 8 1007.6 1006.2 0.0
19/12:30am 27.0 24.3 7.5 29 10.5 N 11 11 6 6 1007.6 1006.2 0.0
19/12:00am 27.6 25.1 8.0 29 10.7 N 11 13 6 7 1007.7 1006.3 0.0
 
Date/Time
EDT
Temp
°C
App
Temp
°C
Dew
Point
°C
Rel
Hum
%
Delta-T
°C
Wind Press
QNH
hPa
Press
MSL
hPa
Rain since
9am
mm
Dir  Spd
km/h
Gust
km/h
Spd
kts
Gust
kts
18/11:30pm 28.0 25.5 8.3 29 10.8 N 11 13 6 7 1007.9 1006.5 0.0
18/11:00pm 28.7 26.1 7.9 27 11.4 NNW 11 13 6 7 1008.0 1006.6 0.0
18/10:30pm 28.9 26.6 9.1 29 11.1 NNW 11 11 6 6 1008.1 1006.7 0.0
18/10:00pm 28.8 26.5 9.0 29 11.1 NNW 11 11 6 6 1008.0 1006.6 0.0
18/09:30pm 29.0 26.8 9.2 29 11.1 NW 11 13 6 7 1007.9 1006.5 0.0
18/09:00pm 29.7 27.5 9.3 28 11.5 NW 11 11 6 6 1007.7 1006.3 0.0
18/08:30pm 30.4 28.4 8.7 26 12.1 NW 9 11 5 6 1007.5 1006.1 0.0
18/08:00pm 32.8 30.9 7.6 21 14.1 W 7 9 4 5 1007.3 1005.9 0.0
18/07:30pm 34.3 33.5 6.6 18 15.3 CALM 0 0 0 0 1007.1 1005.7 0.0
18/07:00pm 35.4 33.5 6.6 17 16.0 E 6 7 3 4 1006.8 1005.5 0.0
18/06:30pm 36.3 33.4 6.5 16 16.6 S 11 17 6 9 1006.7 1005.4 0.0
18/06:00pm 36.1 33.2 6.3 16 16.6 NE 11 17 6 9 1006.8 1005.5 0.0
18/05:30pm 36.1 32.8 6.3 16 16.5 SE 13 19 7 10 1006.8 1005.5 0.0
18/05:00pm 35.9 32.9 6.2 16 16.5 NW 11 13 6 7 1006.9 1005.6 0.0
18/04:30pm 36.6 33.4 6.7 16 16.7 SE 13 19 7 10 1007.2 1005.8 0.0
18/04:00pm 36.8 33.8 7.8 17 16.5 S 13 30 7 16 1007.6 1006.2 0.0
18/03:30pm 36.1 33.7 7.2 17 16.2 S 9 13 5 7 1008.1 1006.7 0.0
18/03:00pm 35.5 33.0 6.7 17 16.0 E 9 17 5 9 1008.5 1007.2 0.0
18/02:30pm 35.3 32.8 9.7 21 14.9 NE 13 19 7 10 1009.2 1007.9 0.0
18/02:00pm 33.7 31.4 10.3 24 13.7 NE 13 19 7 10 1009.8 1008.5 0.0
18/01:30pm 33.0 31.2 10.9 26 13.0 WNW 11 19 6 10 1010.4 1009.1 0.0
18/01:00pm 32.2 30.3 11.9 29 12.1 N 13 20 7 11 1011.1 1009.8 0.0
18/12:30pm 31.5 29.0 12.3 31 11.4 NNW 17 24 9 13 1011.6 1010.3 0.0
18/12:00pm 30.5 28.0 12.4 33 10.8 N 17 26 9 14 1012.1 1010.7 0.0
18/11:30am 30.2 27.5 13.5 36 10.1 NNE 20 30 11 16 1012.6 1011.3 0.0
18/11:00am 28.5 25.7 13.2 39 9.1 N 20 30 11 16 1012.9 1011.6 0.0
18/10:30am 27.4 24.8 13.7 43 8.2 N 20 28 11 15 1013.3 1012.0 0.0
18/10:00am 26.5 23.6 13.9 45 7.5 NNE 22 32 12 17 1013.5 1012.2 0.0
18/09:30am 25.2 21.5 14.0 49 6.7 NNE 26 33 14 18 1013.6 1012.3 0.0
18/09:00am 24.4 20.3 13.9 52 6.2 NE 28 37 15 20 1013.6 1012.3 0.0
18/08:30am 23.6 20.7 14.0 55 5.7 NNE 22 32 12 17 1013.5 1012.2 0.0
18/08:00am 22.8 20.6 13.3 55 5.5 NE 17 22 9 12 1013.4 1012.1 0.0
18/07:30am 22.1 20.1 12.6 55 5.5 NE 15 19 8 10 1013.0 1011.7 0.0
18/07:00am 22.0 19.2 12.5 54 5.4 NE 19 24 10 13 1012.6 1011.3 0.0
18/06:30am 22.4 19.5 12.4 53 5.7 NE 19 22 10 12 1012.1 1010.7 0.0
18/06:00am 22.6 19.7 12.3 52 5.9 NE 19 26 10 14 1011.5 1010.2 0.0
18/05:30am 23.2 19.6 11.9 49 6.4 NE 22 28 12 15 1011.2 1009.9 0.0
18/05:00am 23.7 19.8 12.0 48 6.7 NE 24 32 13 17 1010.8 1009.5 0.0
18/04:30am 24.2 20.8 11.2 44 7.4 NE 20 28 11 15 1010.8 1009.5 0.0
18/04:00am 24.8 20.5 10.7 41 7.9 NE 24 28 13 15 1010.6 1009.3 0.0
18/03:30am 25.5 20.4 10.5 39 8.4 NE 28 35 15 19 1010.4 1009.1 0.0
18/03:00am 25.5 20.9 9.7 37 8.8 NE 24 33 13 18 1010.3 1009.0 0.0
18/02:30am 25.6 20.6 8.1 33 9.5 NNE 24 32 13 17 1010.3 1009.0 0.0
18/02:00am 24.1 19.4 5.9 31 9.4 ENE 20 28 11 15 1010.5 1009.2 0.0
18/01:30am 23.0 20.1 4.5 30 9.2 E 9 13 5 7 1010.2 1008.9 0.0
18/01:00am 23.7 21.8 6.5 33 8.9 ENE 6 7 3 4 1010.3 1009.0 0.0
18/12:30am 23.7 21.5 5.1 30 9.4 ESE 6 7 3 4 1010.5 1009.2 0.0
18/12:00am 25.0 22.6 5.2 28 10.1 SSE 7 7 4 4 1010.5 1009.2 0.0
 
Date/Time
EDT
Temp
°C
App
Temp
°C
Dew
Point
°C
Rel
Hum
%
Delta-T
°C
Wind Press
QNH
hPa
Press
MSL
hPa
Rain since
9am
mm
Dir  Spd
km/h
Gust
km/h
Spd
kts
Gust
kts
17/11:30pm 25.7 23.8 6.8 30 10.0 SSW 6 7 3 4 1010.6 1009.3 0.0
17/11:00pm 25.6 23.4 5.2 27 10.5 SSW 6 9 3 5 1010.7 1009.4 0.0
17/10:30pm 25.5 23.7 8.1 33 9.4 WNW 7 9 4 5 1010.6 1009.3 0.0
17/10:00pm 26.2 24.5 8.2 32 9.8 NW 7 7 4 4 1010.5 1009.2 0.0
17/09:30pm 27.1 25.2 7.5 29 10.6 WNW 7 9 4 5 1010.4 1009.1 0.0
17/09:00pm 28.2 26.4 8.0 28 11.1 WNW 7 9 4 5 1010.3 1009.0 0.0
17/08:30pm 28.6 28.2 8.3 28 11.2 CALM 0 0 0 0 1010.2 1008.9 0.0
17/08:00pm 31.3 29.0 4.9 19 14.0 SSE 6 7 3 4 1009.9 1008.6 0.0
17/07:30pm 32.9 30.6 5.5 18 14.7 S 7 11 4 6 1009.7 1008.4 0.0
17/07:00pm 33.7 30.9 5.3 17 15.3 SSE 9 13 5 7 1009.5 1008.2 0.0
17/06:30pm 34.3 30.9 5.8 17 15.5 SSE 13 19 7 10 1009.3 1008.0 0.0
17/06:00pm 34.4 31.6 5.0 16 15.8 SSE 9 15 5 8 1009.4 1008.1 0.0
17/05:30pm 34.8 31.5 6.2 17 15.7 W 13 37 7 20 1009.6 1008.3 0.0
17/05:00pm 34.3 31.4 6.6 18 15.3 SE 11 19 6 10 1009.8 1008.5 0.0
17/04:30pm 35.2 32.3 4.7 15 16.4 ESE 9 24 5 13 1010.1 1008.8 0.0
17/04:00pm 34.7 31.3 6.1 17 15.7 S 13 20 7 11 1010.5 1009.2 0.0
17/03:30pm 33.7 30.5 8.3 21 14.4 NW 15 26 8 14 1011.0 1009.7 0.0
17/03:00pm 34.2 32.2 8.8 21 14.5 SSW 9 17 5 9 1011.6 1010.3 0.0
17/02:30pm 33.3 30.3 9.4 23 13.7 E 15 19 8 10 1012.2 1010.8 0.0
17/02:00pm 32.4 30.9 10.4 26 12.8 NE 9 19 5 10 1013.0 1011.7 0.0
17/01:30pm 31.2 29.3 10.5 28 12.0 NNE 11 17 6 9 1013.6 1012.3 0.0
17/01:00pm 31.0 28.7 11.9 31 11.3 NNW 15 24 8 13 1014.0 1012.7 0.0
17/12:30pm 29.8 27.4 11.3 32 10.8 NNW 15 24 8 13 1014.4 1013.1 0.0
17/12:00pm 29.1 27.3 12.1 35 10.0 NE 13 26 7 14 1015.0 1013.7 0.0
17/11:30am 28.1 25.5 12.0 36 9.4 NNE 17 26 9 14 1015.6 1014.3 0.0
17/11:00am 27.1 24.6 12.3 39 8.6 NNE 17 24 9 13 1016.0 1014.7 0.0
17/10:30am 26.0 23.0 12.5 43 7.9 NNE 20 30 11 16 1016.1 1014.8 0.0
17/10:00am 24.6 21.6 12.5 46 7.0 NE 20 30 11 16 1016.3 1015.1 0.0

Other formats

Comma delimited format used in spreadsheet applications
http://www.bom.gov.au/fwo/IDN60801/IDN60801.95527.axf

JavaScript Object Notation format (JSON) in row-major order
http://www.bom.gov.au/fwo/IDN60801/IDN60801.95527.json

Data quality

Most of these data are generated automatically and are frequently updated. Quality checks on data are not normally performed. It is possible for incorrect values to appear. Refer to information at About Latest Weather Observations and please check the disclaimer before using these data.